sensor_id;sensor_type;location;lat;lon;timestamp;P1;durP1;ratioP1;P2;durP2;ratioP2
52316;SDS011;38725;41.994;21.458;2022-08-18T00:01:38;9.98;;;5.00;;
52316;SDS011;38725;41.994;21.458;2022-08-18T00:04:05;9.82;;;5.35;;
52316;SDS011;38725;41.994;21.458;2022-08-18T00:06:31;8.52;;;5.22;;
52316;SDS011;38725;41.994;21.458;2022-08-18T00:08:58;10.57;;;5.35;;
52316;SDS011;38725;41.994;21.458;2022-08-18T00:11:25;12.05;;;6.03;;
52316;SDS011;38725;41.994;21.458;2022-08-18T00:13:51;9.93;;;5.57;;
52316;SDS011;38725;41.994;21.458;2022-08-18T00:16:17;9.00;;;4.78;;
52316;SDS011;38725;41.994;21.458;2022-08-18T00:18:43;8.82;;;5.32;;
52316;SDS011;38725;41.994;21.458;2022-08-18T00:21:10;10.55;;;5.57;;
52316;SDS011;38725;41.994;21.458;2022-08-18T00:23:36;12.95;;;5.30;;
52316;SDS011;38725;41.994;21.458;2022-08-18T00:26:02;7.28;;;4.93;;
52316;SDS011;38725;41.994;21.458;2022-08-18T00:28:29;11.15;;;5.47;;
52316;SDS011;38725;41.994;21.458;2022-08-18T00:30:55;9.55;;;5.22;;
52316;SDS011;38725;41.994;21.458;2022-08-18T00:33:21;9.98;;;5.80;;
52316;SDS011;38725;41.994;21.458;2022-08-18T00:35:47;9.05;;;5.88;;
52316;SDS011;38725;41.994;21.458;2022-08-18T00:38:14;11.35;;;5.70;;
52316;SDS011;38725;41.994;21.458;2022-08-18T00:40:44;8.68;;;5.22;;
52316;SDS011;38725;41.994;21.458;2022-08-18T00:43:13;14.45;;;5.50;;
52316;SDS011;38725;41.994;21.458;2022-08-18T00:45:41;9.75;;;5.80;;
52316;SDS011;38725;41.994;21.458;2022-08-18T00:48:08;14.25;;;5.75;;
52316;SDS011;38725;41.994;21.458;2022-08-18T00:50:39;10.52;;;5.70;;
52316;SDS011;38725;41.994;21.458;2022-08-18T00:53:26;9.00;;;5.65;;
52316;SDS011;38725;41.994;21.458;2022-08-18T00:55:54;10.93;;;5.70;;
52316;SDS011;38725;41.994;21.458;2022-08-18T00:58:28;12.38;;;5.55;;
52316;SDS011;38725;41.994;21.458;2022-08-18T01:00:56;10.23;;;5.60;;
52316;SDS011;38725;41.994;21.458;2022-08-18T01:03:25;8.85;;;5.57;;
52316;SDS011;38725;41.994;21.458;2022-08-18T01:05:58;11.30;;;5.25;;
52316;SDS011;38725;41.994;21.458;2022-08-18T01:08:25;6.80;;;5.00;;
52316;SDS011;38725;41.994;21.458;2022-08-18T01:10:51;9.38;;;5.22;;
52316;SDS011;38725;41.994;21.458;2022-08-18T01:13:18;12.75;;;5.40;;
52316;SDS011;38725;41.994;21.458;2022-08-18T01:15:44;8.73;;;5.10;;
52316;SDS011;38725;41.994;21.458;2022-08-18T01:18:11;7.55;;;4.72;;
52316;SDS011;38725;41.994;21.458;2022-08-18T01:23:46;11.60;;;5.95;;
52316;SDS011;38725;41.994;21.458;2022-08-18T01:26:13;6.95;;;4.70;;
52316;SDS011;38725;41.994;21.458;2022-08-18T01:28:41;10.27;;;5.28;;
52316;SDS011;38725;41.994;21.458;2022-08-18T01:31:09;7.50;;;5.18;;
52316;SDS011;38725;41.994;21.458;2022-08-18T01:33:37;7.13;;;4.68;;
52316;SDS011;38725;41.994;21.458;2022-08-18T01:36:12;8.20;;;5.00;;
52316;SDS011;38725;41.994;21.458;2022-08-18T01:38:41;7.38;;;4.80;;
52316;SDS011;38725;41.994;21.458;2022-08-18T01:41:07;8.10;;;4.25;;
52316;SDS011;38725;41.994;21.458;2022-08-18T01:43:34;5.95;;;5.25;;
52316;SDS011;38725;41.994;21.458;2022-08-18T01:46:01;7.63;;;4.88;;
52316;SDS011;38725;41.994;21.458;2022-08-18T01:48:32;8.90;;;5.43;;
52316;SDS011;38725;41.994;21.458;2022-08-18T01:51:02;8.73;;;4.80;;
52316;SDS011;38725;41.994;21.458;2022-08-18T01:53:29;9.00;;;5.00;;
52316;SDS011;38725;41.994;21.458;2022-08-18T01:55:55;9.23;;;5.00;;
52316;SDS011;38725;41.994;21.458;2022-08-18T01:58:22;13.40;;;5.00;;
52316;SDS011;38725;41.994;21.458;2022-08-18T02:00:55;8.30;;;4.40;;
52316;SDS011;38725;41.994;21.458;2022-08-18T02:03:22;5.47;;;4.35;;
52316;SDS011;38725;41.994;21.458;2022-08-18T02:05:51;7.32;;;4.60;;
52316;SDS011;38725;41.994;21.458;2022-08-18T02:08:19;11.52;;;5.47;;
52316;SDS011;38725;41.994;21.458;2022-08-18T02:10:46;9.73;;;4.85;;
52316;SDS011;38725;41.994;21.458;2022-08-18T02:13:12;6.95;;;4.80;;
52316;SDS011;38725;41.994;21.458;2022-08-18T02:15:38;7.25;;;5.40;;
52316;SDS011;38725;41.994;21.458;2022-08-18T02:18:04;12.60;;;4.97;;
52316;SDS011;38725;41.994;21.458;2022-08-18T02:20:30;7.65;;;5.22;;
52316;SDS011;38725;41.994;21.458;2022-08-18T02:22:57;8.98;;;4.95;;
52316;SDS011;38725;41.994;21.458;2022-08-18T02:25:23;8.60;;;5.20;;
52316;SDS011;38725;41.994;21.458;2022-08-18T02:27:49;8.63;;;5.60;;
52316;SDS011;38725;41.994;21.458;2022-08-18T02:30:16;9.00;;;5.47;;
52316;SDS011;38725;41.994;21.458;2022-08-18T02:32:42;12.15;;;6.00;;
52316;SDS011;38725;41.994;21.458;2022-08-18T02:35:09;8.43;;;5.80;;
52316;SDS011;38725;41.994;21.458;2022-08-18T02:37:35;7.90;;;5.57;;
52316;SDS011;38725;41.994;21.458;2022-08-18T02:40:02;13.10;;;6.35;;
52316;SDS011;38725;41.994;21.458;2022-08-18T02:42:28;10.68;;;7.05;;
52316;SDS011;38725;41.994;21.458;2022-08-18T02:44:55;9.50;;;6.53;;
52316;SDS011;38725;41.994;21.458;2022-08-18T02:47:21;8.77;;;6.50;;
52316;SDS011;38725;41.994;21.458;2022-08-18T02:49:47;11.02;;;6.85;;
52316;SDS011;38725;41.994;21.458;2022-08-18T02:52:13;12.57;;;7.20;;
52316;SDS011;38725;41.994;21.458;2022-08-18T02:54:40;12.30;;;6.53;;
52316;SDS011;38725;41.994;21.458;2022-08-18T02:57:10;9.40;;;6.35;;
52316;SDS011;38725;41.994;21.458;2022-08-18T02:59:37;9.50;;;7.25;;
52316;SDS011;38725;41.994;21.458;2022-08-18T03:02:04;11.38;;;6.35;;
52316;SDS011;38725;41.994;21.458;2022-08-18T03:04:31;14.43;;;7.05;;
52316;SDS011;38725;41.994;21.458;2022-08-18T03:07:01;9.32;;;7.00;;
52316;SDS011;38725;41.994;21.458;2022-08-18T03:09:28;11.73;;;7.00;;
52316;SDS011;38725;41.994;21.458;2022-08-18T03:11:55;9.27;;;6.18;;
52316;SDS011;38725;41.994;21.458;2022-08-18T03:14:22;9.70;;;6.18;;
52316;SDS011;38725;41.994;21.458;2022-08-18T03:16:48;11.30;;;6.28;;
52316;SDS011;38725;41.994;21.458;2022-08-18T03:19:14;11.32;;;6.25;;
52316;SDS011;38725;41.994;21.458;2022-08-18T03:21:41;9.45;;;5.97;;
52316;SDS011;38725;41.994;21.458;2022-08-18T03:24:08;10.23;;;7.05;;
52316;SDS011;38725;41.994;21.458;2022-08-18T03:26:34;10.45;;;6.75;;
52316;SDS011;38725;41.994;21.458;2022-08-18T03:29:00;10.20;;;7.38;;
52316;SDS011;38725;41.994;21.458;2022-08-18T03:31:28;10.38;;;6.82;;
52316;SDS011;38725;41.994;21.458;2022-08-18T03:33:56;10.27;;;7.20;;
52316;SDS011;38725;41.994;21.458;2022-08-18T03:36:24;10.57;;;6.95;;
52316;SDS011;38725;41.994;21.458;2022-08-18T03:38:51;11.40;;;7.20;;
52316;SDS011;38725;41.994;21.458;2022-08-18T03:41:19;12.90;;;7.35;;
52316;SDS011;38725;41.994;21.458;2022-08-18T03:43:46;13.02;;;7.95;;
52316;SDS011;38725;41.994;21.458;2022-08-18T03:46:13;15.52;;;7.50;;
52316;SDS011;38725;41.994;21.458;2022-08-18T03:48:40;12.52;;;6.82;;
52316;SDS011;38725;41.994;21.458;2022-08-18T03:51:13;10.10;;;6.40;;
52316;SDS011;38725;41.994;21.458;2022-08-18T03:53:40;14.90;;;7.72;;
52316;SDS011;38725;41.994;21.458;2022-08-18T03:56:10;9.70;;;6.88;;
52316;SDS011;38725;41.994;21.458;2022-08-18T03:58:43;9.80;;;6.72;;
52316;SDS011;38725;41.994;21.458;2022-08-18T04:01:14;9.07;;;7.05;;
52316;SDS011;38725;41.994;21.458;2022-08-18T04:03:41;12.07;;;6.80;;
52316;SDS011;38725;41.994;21.458;2022-08-18T04:06:08;13.32;;;7.20;;
52316;SDS011;38725;41.994;21.458;2022-08-18T04:08:39;12.70;;;6.40;;
52316;SDS011;38725;41.994;21.458;2022-08-18T04:11:05;13.75;;;7.28;;
52316;SDS011;38725;41.994;21.458;2022-08-18T04:13:31;11.13;;;7.60;;
52316;SDS011;38725;41.994;21.458;2022-08-18T04:16:00;10.13;;;7.15;;
52316;SDS011;38725;41.994;21.458;2022-08-18T04:18:26;11.05;;;7.50;;
52316;SDS011;38725;41.994;21.458;2022-08-18T04:20:54;14.85;;;7.40;;
52316;SDS011;38725;41.994;21.458;2022-08-18T04:23:20;12.27;;;7.50;;
52316;SDS011;38725;41.994;21.458;2022-08-18T04:25:54;15.52;;;7.43;;
52316;SDS011;38725;41.994;21.458;2022-08-18T04:28:21;11.52;;;7.00;;
52316;SDS011;38725;41.994;21.458;2022-08-18T04:30:47;9.65;;;6.93;;
52316;SDS011;38725;41.994;21.458;2022-08-18T04:33:13;11.18;;;6.72;;
52316;SDS011;38725;41.994;21.458;2022-08-18T04:35:39;9.18;;;6.60;;
52316;SDS011;38725;41.994;21.458;2022-08-18T04:38:06;11.45;;;6.65;;
52316;SDS011;38725;41.994;21.458;2022-08-18T04:40:32;10.77;;;6.35;;
52316;SDS011;38725;41.994;21.458;2022-08-18T04:42:58;12.18;;;6.65;;
52316;SDS011;38725;41.994;21.458;2022-08-18T04:45:26;9.95;;;6.03;;
52316;SDS011;38725;41.994;21.458;2022-08-18T04:47:54;12.00;;;5.82;;
52316;SDS011;38725;41.994;21.458;2022-08-18T04:50:22;11.05;;;5.95;;
52316;SDS011;38725;41.994;21.458;2022-08-18T04:52:48;11.52;;;6.22;;
52316;SDS011;38725;41.994;21.458;2022-08-18T04:55:33;11.23;;;6.20;;
52316;SDS011;38725;41.994;21.458;2022-08-18T04:58:00;11.48;;;6.57;;
52316;SDS011;38725;41.994;21.458;2022-08-18T05:00:26;11.18;;;5.97;;
52316;SDS011;38725;41.994;21.458;2022-08-18T05:02:52;10.05;;;5.97;;
52316;SDS011;38725;41.994;21.458;2022-08-18T05:05:18;10.05;;;6.55;;
52316;SDS011;38725;41.994;21.458;2022-08-18T05:07:45;9.02;;;6.05;;
52316;SDS011;38725;41.994;21.458;2022-08-18T05:10:12;8.55;;;6.22;;
52316;SDS011;38725;41.994;21.458;2022-08-18T05:12:38;10.77;;;5.82;;
52316;SDS011;38725;41.994;21.458;2022-08-18T05:15:08;8.82;;;5.57;;
52316;SDS011;38725;41.994;21.458;2022-08-18T05:17:37;12.02;;;6.00;;
52316;SDS011;38725;41.994;21.458;2022-08-18T05:20:05;11.10;;;5.55;;
52316;SDS011;38725;41.994;21.458;2022-08-18T05:22:41;9.93;;;6.05;;
52316;SDS011;38725;41.994;21.458;2022-08-18T05:25:08;9.02;;;5.53;;
52316;SDS011;38725;41.994;21.458;2022-08-18T05:27:36;13.32;;;6.90;;
52316;SDS011;38725;41.994;21.458;2022-08-18T05:30:04;10.07;;;5.63;;
52316;SDS011;38725;41.994;21.458;2022-08-18T05:32:37;11.65;;;5.90;;
52316;SDS011;38725;41.994;21.458;2022-08-18T05:35:10;11.23;;;6.45;;
52316;SDS011;38725;41.994;21.458;2022-08-18T05:40:21;7.85;;;6.07;;
52316;SDS011;38725;41.994;21.458;2022-08-18T05:42:52;11.40;;;7.18;;
52316;SDS011;38725;41.994;21.458;2022-08-18T05:45:27;11.90;;;6.63;;
52316;SDS011;38725;41.994;21.458;2022-08-18T05:48:12;9.18;;;6.57;;
52316;SDS011;38725;41.994;21.458;2022-08-18T05:50:38;9.45;;;5.95;;
52316;SDS011;38725;41.994;21.458;2022-08-18T05:53:06;11.02;;;6.50;;
52316;SDS011;38725;41.994;21.458;2022-08-18T05:55:38;8.75;;;5.97;;
52316;SDS011;38725;41.994;21.458;2022-08-18T05:58:44;10.38;;;6.38;;
52316;SDS011;38725;41.994;21.458;2022-08-18T06:01:15;11.02;;;6.45;;
52316;SDS011;38725;41.994;21.458;2022-08-18T06:03:47;14.05;;;5.80;;
52316;SDS011;38725;41.994;21.458;2022-08-18T06:06:18;14.02;;;7.15;;
52316;SDS011;38725;41.994;21.458;2022-08-18T06:08:54;13.10;;;6.30;;
52316;SDS011;38725;41.994;21.458;2022-08-18T06:11:21;8.18;;;6.30;;
52316;SDS011;38725;41.994;21.458;2022-08-18T06:13:48;12.68;;;7.03;;
52316;SDS011;38725;41.994;21.458;2022-08-18T06:16:28;10.43;;;6.38;;
52316;SDS011;38725;41.994;21.458;2022-08-18T06:26:53;22.27;;;7.97;;
52316;SDS011;38725;41.994;21.458;2022-08-18T06:40:24;12.23;;;4.90;;
52316;SDS011;38725;41.994;21.458;2022-08-18T06:42:51;7.95;;;4.95;;
52316;SDS011;38725;41.994;21.458;2022-08-18T06:45:17;12.05;;;5.72;;
52316;SDS011;38725;41.994;21.458;2022-08-18T06:50:12;44.35;;;7.55;;
52316;SDS011;38725;41.994;21.458;2022-08-18T06:52:56;7.88;;;4.80;;
52316;SDS011;38725;41.994;21.458;2022-08-18T06:55:33;15.40;;;5.43;;
52316;SDS011;38725;41.994;21.458;2022-08-18T06:58:04;11.90;;;4.70;;
52316;SDS011;38725;41.994;21.458;2022-08-18T07:00:32;7.63;;;4.75;;
52316;SDS011;38725;41.994;21.458;2022-08-18T07:05:32;11.07;;;5.03;;
52316;SDS011;38725;41.994;21.458;2022-08-18T07:10:33;9.75;;;4.90;;
52316;SDS011;38725;41.994;21.458;2022-08-18T07:13:42;10.35;;;4.85;;
52316;SDS011;38725;41.994;21.458;2022-08-18T07:15:50;12.65;;;4.13;;
52316;SDS011;38725;41.994;21.458;2022-08-18T07:18:21;10.95;;;5.30;;
52316;SDS011;38725;41.994;21.458;2022-08-18T07:20:50;11.75;;;4.88;;
52316;SDS011;38725;41.994;21.458;2022-08-18T07:23:21;12.00;;;4.88;;
52316;SDS011;38725;41.994;21.458;2022-08-18T07:25:49;11.70;;;5.47;;
52316;SDS011;38725;41.994;21.458;2022-08-18T07:33:39;9.80;;;4.95;;
52316;SDS011;38725;41.994;21.458;2022-08-18T07:36:07;8.65;;;4.70;;
52316;SDS011;38725;41.994;21.458;2022-08-18T07:41:37;10.52;;;5.00;;
52316;SDS011;38725;41.994;21.458;2022-08-18T07:44:06;9.30;;;4.90;;
52316;SDS011;38725;41.994;21.458;2022-08-18T07:46:59;31.08;;;6.22;;
52316;SDS011;38725;41.994;21.458;2022-08-18T07:49:25;8.27;;;5.25;;
52316;SDS011;38725;41.994;21.458;2022-08-18T07:52:03;9.15;;;4.85;;
52316;SDS011;38725;41.994;21.458;2022-08-18T07:57:31;8.15;;;4.30;;
52316;SDS011;38725;41.994;21.458;2022-08-18T08:07:48;14.88;;;5.35;;
52316;SDS011;38725;41.994;21.458;2022-08-18T08:12:45;9.13;;;4.25;;
52316;SDS011;38725;41.994;21.458;2022-08-18T08:15:20;11.68;;;4.00;;
52316;SDS011;38725;41.994;21.458;2022-08-18T08:17:51;10.40;;;4.35;;
52316;SDS011;38725;41.994;21.458;2022-08-18T08:20:32;8.38;;;4.40;;
52316;SDS011;38725;41.994;21.458;2022-08-18T08:25:48;9.88;;;4.60;;
52316;SDS011;38725;41.994;21.458;2022-08-18T08:31:19;8.45;;;4.07;;
52316;SDS011;38725;41.994;21.458;2022-08-18T08:33:55;9.90;;;4.30;;
52316;SDS011;38725;41.994;21.458;2022-08-18T08:36:27;7.35;;;4.05;;
52316;SDS011;38725;41.994;21.458;2022-08-18T08:38:58;11.02;;;4.25;;
52316;SDS011;38725;41.994;21.458;2022-08-18T08:43:56;8.70;;;4.20;;
52316;SDS011;38725;41.994;21.458;2022-08-18T08:46:25;7.55;;;3.95;;
52316;SDS011;38725;41.994;21.458;2022-08-18T08:49:00;11.32;;;4.18;;
52316;SDS011;38725;41.994;21.458;2022-08-18T08:53:56;7.63;;;4.30;;
52316;SDS011;38725;41.994;21.458;2022-08-18T08:56:27;6.45;;;3.85;;
52316;SDS011;38725;41.994;21.458;2022-08-18T08:58:56;10.60;;;4.57;;
52316;SDS011;38725;41.994;21.458;2022-08-18T09:01:30;11.75;;;3.78;;
52316;SDS011;38725;41.994;21.458;2022-08-18T09:04:02;7.05;;;3.72;;
52316;SDS011;38725;41.994;21.458;2022-08-18T09:06:47;11.63;;;4.55;;
52316;SDS011;38725;41.994;21.458;2022-08-18T09:38:30;6.45;;;3.78;;
52316;SDS011;38725;41.994;21.458;2022-08-18T09:41:16;9.65;;;4.22;;
52316;SDS011;38725;41.994;21.458;2022-08-18T09:43:57;9.70;;;3.90;;
52316;SDS011;38725;41.994;21.458;2022-08-18T09:51:51;7.18;;;3.67;;
52316;SDS011;38725;41.994;21.458;2022-08-18T09:54:18;6.95;;;3.45;;
52316;SDS011;38725;41.994;21.458;2022-08-18T10:02:00;6.22;;;3.45;;
52316;SDS011;38725;41.994;21.458;2022-08-18T10:04:37;6.63;;;3.92;;
52316;SDS011;38725;41.994;21.458;2022-08-18T10:07:19;11.52;;;4.00;;
52316;SDS011;38725;41.994;21.458;2022-08-18T10:22:46;7.28;;;4.07;;
52316;SDS011;38725;41.994;21.458;2022-08-18T10:25:12;9.07;;;3.90;;
52316;SDS011;38725;41.994;21.458;2022-08-18T10:32:55;8.05;;;3.72;;
52316;SDS011;38725;41.994;21.458;2022-08-18T10:38:18;10.70;;;3.25;;
52316;SDS011;38725;41.994;21.458;2022-08-18T10:40:59;7.65;;;3.85;;
52316;SDS011;38725;41.994;21.458;2022-08-18T10:43:36;7.13;;;3.40;;
52316;SDS011;38725;41.994;21.458;2022-08-18T10:46:12;5.82;;;3.42;;
52316;SDS011;38725;41.994;21.458;2022-08-18T10:48:39;5.65;;;3.50;;
52316;SDS011;38725;41.994;21.458;2022-08-18T10:51:11;7.53;;;3.50;;
52316;SDS011;38725;41.994;21.458;2022-08-18T10:53:44;4.57;;;3.10;;
52316;SDS011;38725;41.994;21.458;2022-08-18T11:01:55;5.00;;;3.10;;
52316;SDS011;38725;41.994;21.458;2022-08-18T11:04:30;5.80;;;3.28;;
52316;SDS011;38725;41.994;21.458;2022-08-18T11:07:04;5.45;;;3.42;;
52316;SDS011;38725;41.994;21.458;2022-08-18T11:09:31;6.25;;;3.25;;
52316;SDS011;38725;41.994;21.458;2022-08-18T11:11:58;8.68;;;3.67;;
52316;SDS011;38725;41.994;21.458;2022-08-18T11:14:41;10.32;;;4.47;;
52316;SDS011;38725;41.994;21.458;2022-08-18T11:19:39;5.13;;;2.80;;
52316;SDS011;38725;41.994;21.458;2022-08-18T11:22:06;6.40;;;3.10;;
52316;SDS011;38725;41.994;21.458;2022-08-18T11:24:45;8.80;;;3.20;;
52316;SDS011;38725;41.994;21.458;2022-08-18T11:27:18;7.53;;;3.63;;
52316;SDS011;38725;41.994;21.458;2022-08-18T11:29:45;6.93;;;3.92;;
52316;SDS011;38725;41.994;21.458;2022-08-18T11:32:30;6.50;;;3.22;;
52316;SDS011;38725;41.994;21.458;2022-08-18T11:37:34;9.35;;;3.78;;
52316;SDS011;38725;41.994;21.458;2022-08-18T11:40:04;5.57;;;3.00;;
52316;SDS011;38725;41.994;21.458;2022-08-18T11:42:32;5.45;;;3.20;;
52316;SDS011;38725;41.994;21.458;2022-08-18T11:45:06;6.55;;;3.30;;
52316;SDS011;38725;41.994;21.458;2022-08-18T11:47:37;10.82;;;3.40;;
52316;SDS011;38725;41.994;21.458;2022-08-18T11:50:07;10.13;;;3.60;;
52316;SDS011;38725;41.994;21.458;2022-08-18T11:52:48;4.45;;;3.10;;
52316;SDS011;38725;41.994;21.458;2022-08-18T11:55:27;3.35;;;2.85;;
52316;SDS011;38725;41.994;21.458;2022-08-18T11:57:55;3.60;;;2.83;;
52316;SDS011;38725;41.994;21.458;2022-08-18T12:00:37;6.53;;;3.40;;
52316;SDS011;38725;41.994;21.458;2022-08-18T12:03:19;9.40;;;3.13;;
52316;SDS011;38725;41.994;21.458;2022-08-18T12:05:55;5.93;;;3.40;;
52316;SDS011;38725;41.994;21.458;2022-08-18T12:08:25;6.30;;;3.25;;
52316;SDS011;38725;41.994;21.458;2022-08-18T12:11:12;13.52;;;4.70;;
52316;SDS011;38725;41.994;21.458;2022-08-18T12:13:41;7.93;;;2.83;;
52316;SDS011;38725;41.994;21.458;2022-08-18T12:16:09;5.43;;;2.75;;
52316;SDS011;38725;41.994;21.458;2022-08-18T12:18:37;4.38;;;2.72;;
52316;SDS011;38725;41.994;21.458;2022-08-18T12:21:03;3.85;;;2.53;;
52316;SDS011;38725;41.994;21.458;2022-08-18T12:23:30;6.90;;;3.50;;
52316;SDS011;38725;41.994;21.458;2022-08-18T12:25:56;4.10;;;2.75;;
52316;SDS011;38725;41.994;21.458;2022-08-18T12:28:22;3.42;;;2.78;;
52316;SDS011;38725;41.994;21.458;2022-08-18T12:30:51;6.70;;;3.15;;
52316;SDS011;38725;41.994;21.458;2022-08-18T12:33:17;6.13;;;3.10;;
52316;SDS011;38725;41.994;21.458;2022-08-18T12:35:43;10.60;;;3.65;;
52316;SDS011;38725;41.994;21.458;2022-08-18T12:38:10;10.25;;;4.05;;
52316;SDS011;38725;41.994;21.458;2022-08-18T12:40:37;6.88;;;3.88;;
52316;SDS011;38725;41.994;21.458;2022-08-18T12:43:04;6.63;;;3.05;;
52316;SDS011;38725;41.994;21.458;2022-08-18T12:45:30;6.20;;;2.53;;
52316;SDS011;38725;41.994;21.458;2022-08-18T12:47:56;6.57;;;2.80;;
52316;SDS011;38725;41.994;21.458;2022-08-18T12:50:26;5.72;;;2.80;;
52316;SDS011;38725;41.994;21.458;2022-08-18T12:52:52;5.72;;;2.67;;
52316;SDS011;38725;41.994;21.458;2022-08-18T12:55:18;6.68;;;2.80;;
52316;SDS011;38725;41.994;21.458;2022-08-18T12:57:45;3.53;;;2.78;;
52316;SDS011;38725;41.994;21.458;2022-08-18T13:00:11;7.90;;;2.92;;
52316;SDS011;38725;41.994;21.458;2022-08-18T13:02:37;4.47;;;2.65;;
52316;SDS011;38725;41.994;21.458;2022-08-18T13:05:03;7.45;;;3.13;;
52316;SDS011;38725;41.994;21.458;2022-08-18T13:07:30;3.60;;;2.60;;
52316;SDS011;38725;41.994;21.458;2022-08-18T13:09:57;7.93;;;4.13;;
52316;SDS011;38725;41.994;21.458;2022-08-18T13:12:23;3.47;;;2.55;;
52316;SDS011;38725;41.994;21.458;2022-08-18T13:14:50;2.92;;;2.28;;
52316;SDS011;38725;41.994;21.458;2022-08-18T13:17:19;28.00;;;3.75;;
52316;SDS011;38725;41.994;21.458;2022-08-18T13:19:45;6.93;;;2.83;;
52316;SDS011;38725;41.994;21.458;2022-08-18T13:22:12;3.92;;;2.78;;
52316;SDS011;38725;41.994;21.458;2022-08-18T13:24:38;3.60;;;2.53;;
52316;SDS011;38725;41.994;21.458;2022-08-18T13:27:04;10.65;;;3.28;;
52316;SDS011;38725;41.994;21.458;2022-08-18T13:29:30;6.90;;;3.00;;
52316;SDS011;38725;41.994;21.458;2022-08-18T13:31:57;3.75;;;2.72;;
52316;SDS011;38725;41.994;21.458;2022-08-18T13:34:29;5.30;;;2.67;;
52316;SDS011;38725;41.994;21.458;2022-08-18T13:36:59;3.88;;;2.80;;
52316;SDS011;38725;41.994;21.458;2022-08-18T13:39:25;8.77;;;2.70;;
52316;SDS011;38725;41.994;21.458;2022-08-18T13:41:52;8.02;;;2.92;;
52316;SDS011;38725;41.994;21.458;2022-08-18T13:44:19;6.00;;;2.50;;
52316;SDS011;38725;41.994;21.458;2022-08-18T13:46:46;4.68;;;2.65;;
52316;SDS011;38725;41.994;21.458;2022-08-18T13:49:13;4.82;;;2.47;;
52316;SDS011;38725;41.994;21.458;2022-08-18T13:51:40;5.03;;;2.50;;
52316;SDS011;38725;41.994;21.458;2022-08-18T13:54:07;5.22;;;2.50;;
52316;SDS011;38725;41.994;21.458;2022-08-18T13:56:34;17.20;;;3.28;;
52316;SDS011;38725;41.994;21.458;2022-08-18T13:59:00;4.10;;;2.53;;
52316;SDS011;38725;41.994;21.458;2022-08-18T14:01:28;5.55;;;2.90;;
52316;SDS011;38725;41.994;21.458;2022-08-18T14:03:56;7.00;;;3.70;;
52316;SDS011;38725;41.994;21.458;2022-08-18T14:06:22;7.40;;;3.15;;
52316;SDS011;38725;41.994;21.458;2022-08-18T14:08:48;3.70;;;2.67;;
52316;SDS011;38725;41.994;21.458;2022-08-18T14:11:15;4.82;;;2.50;;
52316;SDS011;38725;41.994;21.458;2022-08-18T14:13:42;7.45;;;2.70;;
52316;SDS011;38725;41.994;21.458;2022-08-18T14:16:09;4.47;;;3.08;;
52316;SDS011;38725;41.994;21.458;2022-08-18T14:18:35;5.20;;;2.67;;
52316;SDS011;38725;41.994;21.458;2022-08-18T14:21:01;5.35;;;2.13;;
52316;SDS011;38725;41.994;21.458;2022-08-18T14:23:46;4.10;;;2.05;;
52316;SDS011;38725;41.994;21.458;2022-08-18T14:26:31;3.00;;;2.08;;
52316;SDS011;38725;41.994;21.458;2022-08-18T14:29:13;4.43;;;2.50;;
52316;SDS011;38725;41.994;21.458;2022-08-18T14:31:40;3.67;;;2.22;;
52316;SDS011;38725;41.994;21.458;2022-08-18T14:34:06;2.85;;;2.05;;
52316;SDS011;38725;41.994;21.458;2022-08-18T14:36:32;5.28;;;2.38;;
52316;SDS011;38725;41.994;21.458;2022-08-18T14:38:59;4.60;;;2.22;;
52316;SDS011;38725;41.994;21.458;2022-08-18T14:41:25;4.03;;;2.40;;
52316;SDS011;38725;41.994;21.458;2022-08-18T14:43:52;4.50;;;2.47;;
52316;SDS011;38725;41.994;21.458;2022-08-18T14:46:20;4.00;;;2.28;;
52316;SDS011;38725;41.994;21.458;2022-08-18T14:48:47;5.70;;;2.00;;
52316;SDS011;38725;41.994;21.458;2022-08-18T14:51:13;5.38;;;2.33;;
52316;SDS011;38725;41.994;21.458;2022-08-18T14:53:40;4.07;;;2.47;;
52316;SDS011;38725;41.994;21.458;2022-08-18T14:56:07;4.95;;;2.60;;
52316;SDS011;38725;41.994;21.458;2022-08-18T14:58:36;4.35;;;2.75;;
52316;SDS011;38725;41.994;21.458;2022-08-18T15:01:05;5.55;;;2.72;;
52316;SDS011;38725;41.994;21.458;2022-08-18T15:03:32;9.13;;;2.83;;
52316;SDS011;38725;41.994;21.458;2022-08-18T15:05:59;5.40;;;3.30;;
52316;SDS011;38725;41.994;21.458;2022-08-18T15:08:25;5.25;;;2.90;;
52316;SDS011;38725;41.994;21.458;2022-08-18T15:10:52;6.38;;;2.70;;
52316;SDS011;38725;41.994;21.458;2022-08-18T15:13:18;4.32;;;2.85;;
52316;SDS011;38725;41.994;21.458;2022-08-18T15:15:45;6.18;;;2.67;;
52316;SDS011;38725;41.994;21.458;2022-08-18T15:18:11;21.80;;;3.92;;
52316;SDS011;38725;41.994;21.458;2022-08-18T15:20:37;7.03;;;2.90;;
52316;SDS011;38725;41.994;21.458;2022-08-18T15:23:24;6.50;;;2.90;;
52316;SDS011;38725;41.994;21.458;2022-08-18T15:26:09;5.07;;;2.60;;
52316;SDS011;38725;41.994;21.458;2022-08-18T15:28:36;4.63;;;2.47;;
52316;SDS011;38725;41.994;21.458;2022-08-18T15:31:02;5.72;;;3.00;;
52316;SDS011;38725;41.994;21.458;2022-08-18T15:33:29;7.32;;;2.90;;
52316;SDS011;38725;41.994;21.458;2022-08-18T15:35:55;7.00;;;2.60;;
52316;SDS011;38725;41.994;21.458;2022-08-18T15:38:22;3.90;;;2.78;;
52316;SDS011;38725;41.994;21.458;2022-08-18T15:40:53;4.78;;;2.55;;
52316;SDS011;38725;41.994;21.458;2022-08-18T15:43:22;6.20;;;3.05;;
52316;SDS011;38725;41.994;21.458;2022-08-18T15:45:49;17.95;;;3.75;;
52316;SDS011;38725;41.994;21.458;2022-08-18T15:48:16;5.07;;;2.70;;
52316;SDS011;38725;41.994;21.458;2022-08-18T15:50:43;4.20;;;2.47;;
52316;SDS011;38725;41.994;21.458;2022-08-18T15:53:13;6.65;;;2.72;;
52316;SDS011;38725;41.994;21.458;2022-08-18T15:55:39;5.60;;;3.22;;
52316;SDS011;38725;41.994;21.458;2022-08-18T15:58:06;7.28;;;3.00;;
52316;SDS011;38725;41.994;21.458;2022-08-18T16:00:33;4.95;;;3.00;;
52316;SDS011;38725;41.994;21.458;2022-08-18T16:03:04;10.70;;;2.90;;
52316;SDS011;38725;41.994;21.458;2022-08-18T16:05:31;5.28;;;2.70;;
52316;SDS011;38725;41.994;21.458;2022-08-18T16:07:59;5.13;;;2.90;;
52316;SDS011;38725;41.994;21.458;2022-08-18T16:10:27;4.90;;;2.80;;
52316;SDS011;38725;41.994;21.458;2022-08-18T16:12:53;5.95;;;2.70;;
52316;SDS011;38725;41.994;21.458;2022-08-18T16:15:20;11.05;;;3.45;;
52316;SDS011;38725;41.994;21.458;2022-08-18T16:17:47;5.45;;;3.08;;
52316;SDS011;38725;41.994;21.458;2022-08-18T16:20:13;7.70;;;3.47;;
52316;SDS011;38725;41.994;21.458;2022-08-18T16:22:39;7.20;;;3.20;;
52316;SDS011;38725;41.994;21.458;2022-08-18T16:25:06;3.25;;;2.80;;
52316;SDS011;38725;41.994;21.458;2022-08-18T16:27:33;5.50;;;3.30;;
52316;SDS011;38725;41.994;21.458;2022-08-18T16:30:00;5.63;;;2.90;;
52316;SDS011;38725;41.994;21.458;2022-08-18T16:32:29;8.15;;;3.17;;
52316;SDS011;38725;41.994;21.458;2022-08-18T16:34:55;4.43;;;3.00;;
52316;SDS011;38725;41.994;21.458;2022-08-18T16:37:22;5.10;;;2.92;;
52316;SDS011;38725;41.994;21.458;2022-08-18T16:39:48;6.72;;;3.33;;
52316;SDS011;38725;41.994;21.458;2022-08-18T16:42:14;4.13;;;2.85;;
52316;SDS011;38725;41.994;21.458;2022-08-18T16:44:41;5.93;;;3.15;;
52316;SDS011;38725;41.994;21.458;2022-08-18T16:47:07;8.07;;;3.50;;
52316;SDS011;38725;41.994;21.458;2022-08-18T16:49:33;4.03;;;2.75;;
52316;SDS011;38725;41.994;21.458;2022-08-18T16:52:00;5.82;;;2.80;;
52316;SDS011;38725;41.994;21.458;2022-08-18T16:54:29;4.00;;;2.90;;
52316;SDS011;38725;41.994;21.458;2022-08-18T16:56:56;4.90;;;2.85;;
52316;SDS011;38725;41.994;21.458;2022-08-18T16:59:22;4.65;;;3.05;;